sensor_id;sensor_type;location;lat;lon;timestamp;P1;durP1;ratioP1;P2;durP2;ratioP2
24151;SDS011;12311;50.866;4.332;2022-10-31T00:02:24;12.32;;;2.60;;
24151;SDS011;12311;50.866;4.332;2022-10-31T00:04:50;7.72;;;3.00;;
24151;SDS011;12311;50.866;4.332;2022-10-31T00:07:15;8.18;;;2.95;;
24151;SDS011;12311;50.866;4.332;2022-10-31T00:09:41;7.32;;;2.80;;
24151;SDS011;12311;50.866;4.332;2022-10-31T00:12:07;8.48;;;2.67;;
24151;SDS011;12311;50.866;4.332;2022-10-31T00:14:32;3.85;;;2.13;;
24151;SDS011;12311;50.866;4.332;2022-10-31T00:16:58;6.30;;;2.42;;
24151;SDS011;12311;50.866;4.332;2022-10-31T00:19:23;11.27;;;3.17;;
24151;SDS011;12311;50.866;4.332;2022-10-31T00:21:51;6.55;;;3.28;;
24151;SDS011;12311;50.866;4.332;2022-10-31T00:24:16;9.55;;;3.00;;
24151;SDS011;12311;50.866;4.332;2022-10-31T00:26:42;9.90;;;2.78;;
24151;SDS011;12311;50.866;4.332;2022-10-31T00:29:08;9.07;;;2.63;;
24151;SDS011;12311;50.866;4.332;2022-10-31T00:31:33;6.07;;;2.95;;
24151;SDS011;12311;50.866;4.332;2022-10-31T00:33:59;5.95;;;2.45;;
24151;SDS011;12311;50.866;4.332;2022-10-31T00:36:27;8.82;;;3.95;;
24151;SDS011;12311;50.866;4.332;2022-10-31T00:38:53;7.00;;;3.20;;
24151;SDS011;12311;50.866;4.332;2022-10-31T00:41:19;6.85;;;3.03;;
24151;SDS011;12311;50.866;4.332;2022-10-31T00:43:44;7.57;;;2.67;;
24151;SDS011;12311;50.866;4.332;2022-10-31T00:46:11;11.75;;;3.90;;
24151;SDS011;12311;50.866;4.332;2022-10-31T00:48:37;8.25;;;2.88;;
24151;SDS011;12311;50.866;4.332;2022-10-31T00:51:03;5.07;;;2.55;;
24151;SDS011;12311;50.866;4.332;2022-10-31T00:53:28;5.22;;;2.88;;
24151;SDS011;12311;50.866;4.332;2022-10-31T00:55:54;7.68;;;3.08;;
24151;SDS011;12311;50.866;4.332;2022-10-31T00:58:20;10.57;;;3.00;;
24151;SDS011;12311;50.866;4.332;2022-10-31T01:00:49;9.15;;;2.63;;
24151;SDS011;12311;50.866;4.332;2022-10-31T01:03:25;9.77;;;3.42;;
24151;SDS011;12311;50.866;4.332;2022-10-31T01:05:56;6.88;;;3.55;;
24151;SDS011;12311;50.866;4.332;2022-10-31T01:08:26;8.60;;;2.70;;
24151;SDS011;12311;50.866;4.332;2022-10-31T01:11:04;11.02;;;3.35;;
24151;SDS011;12311;50.866;4.332;2022-10-31T01:13:33;8.27;;;2.90;;
24151;SDS011;12311;50.866;4.332;2022-10-31T01:15:59;8.20;;;3.13;;
24151;SDS011;12311;50.866;4.332;2022-10-31T01:18:26;8.95;;;2.72;;
24151;SDS011;12311;50.866;4.332;2022-10-31T01:20:59;5.95;;;2.72;;
24151;SDS011;12311;50.866;4.332;2022-10-31T01:23:27;5.88;;;2.35;;
24151;SDS011;12311;50.866;4.332;2022-10-31T01:26:09;6.35;;;2.15;;
24151;SDS011;12311;50.866;4.332;2022-10-31T01:28:37;6.20;;;2.90;;
24151;SDS011;12311;50.866;4.332;2022-10-31T01:31:05;4.35;;;2.35;;
24151;SDS011;12311;50.866;4.332;2022-10-31T01:33:32;6.68;;;2.67;;
24151;SDS011;12311;50.866;4.332;2022-10-31T01:35:58;7.45;;;2.72;;
24151;SDS011;12311;50.866;4.332;2022-10-31T01:38:24;8.52;;;2.50;;
24151;SDS011;12311;50.866;4.332;2022-10-31T01:40:50;6.47;;;2.60;;
24151;SDS011;12311;50.866;4.332;2022-10-31T01:43:16;5.65;;;2.78;;
24151;SDS011;12311;50.866;4.332;2022-10-31T01:45:43;5.50;;;2.40;;
24151;SDS011;12311;50.866;4.332;2022-10-31T01:48:15;6.72;;;2.33;;
24151;SDS011;12311;50.866;4.332;2022-10-31T01:50:42;4.97;;;2.33;;
24151;SDS011;12311;50.866;4.332;2022-10-31T01:53:10;11.48;;;2.80;;
24151;SDS011;12311;50.866;4.332;2022-10-31T01:55:41;4.90;;;2.78;;
24151;SDS011;12311;50.866;4.332;2022-10-31T01:58:10;8.73;;;2.67;;
24151;SDS011;12311;50.866;4.332;2022-10-31T02:00:38;9.85;;;3.00;;
24151;SDS011;12311;50.866;4.332;2022-10-31T02:03:05;6.75;;;3.10;;
24151;SDS011;12311;50.866;4.332;2022-10-31T02:05:31;5.53;;;2.15;;
24151;SDS011;12311;50.866;4.332;2022-10-31T02:08:08;6.75;;;2.92;;
24151;SDS011;12311;50.866;4.332;2022-10-31T02:10:38;6.00;;;2.65;;
24151;SDS011;12311;50.866;4.332;2022-10-31T02:13:07;6.43;;;3.00;;
24151;SDS011;12311;50.866;4.332;2022-10-31T02:15:33;5.53;;;2.88;;
24151;SDS011;12311;50.866;4.332;2022-10-31T02:18:01;5.32;;;2.00;;
24151;SDS011;12311;50.866;4.332;2022-10-31T02:20:31;4.85;;;2.40;;
24151;SDS011;12311;50.866;4.332;2022-10-31T02:23:10;7.68;;;2.80;;
24151;SDS011;12311;50.866;4.332;2022-10-31T02:26:07;6.45;;;2.72;;
24151;SDS011;12311;50.866;4.332;2022-10-31T02:31:38;10.00;;;3.03;;
24151;SDS011;12311;50.866;4.332;2022-10-31T02:34:15;7.80;;;3.15;;
24151;SDS011;12311;50.866;4.332;2022-10-31T02:39:26;7.57;;;3.22;;
24151;SDS011;12311;50.866;4.332;2022-10-31T02:42:16;10.35;;;3.10;;
24151;SDS011;12311;50.866;4.332;2022-10-31T02:45:07;7.28;;;3.17;;
24151;SDS011;12311;50.866;4.332;2022-10-31T02:47:39;6.60;;;3.50;;
24151;SDS011;12311;50.866;4.332;2022-10-31T02:53:04;6.97;;;3.03;;
24151;SDS011;12311;50.866;4.332;2022-10-31T02:58:04;11.73;;;3.05;;
24151;SDS011;12311;50.866;4.332;2022-10-31T03:00:42;8.95;;;4.05;;
24151;SDS011;12311;50.866;4.332;2022-10-31T03:03:56;8.65;;;3.03;;
24151;SDS011;12311;50.866;4.332;2022-10-31T03:06:32;7.10;;;2.80;;
24151;SDS011;12311;50.866;4.332;2022-10-31T03:09:16;10.65;;;3.03;;
24151;SDS011;12311;50.866;4.332;2022-10-31T03:11:48;6.32;;;3.08;;
24151;SDS011;12311;50.866;4.332;2022-10-31T03:14:52;11.70;;;3.70;;
24151;SDS011;12311;50.866;4.332;2022-10-31T03:17:30;5.53;;;2.85;;
24151;SDS011;12311;50.866;4.332;2022-10-31T03:20:00;6.57;;;2.95;;
24151;SDS011;12311;50.866;4.332;2022-10-31T03:22:29;8.60;;;3.40;;
24151;SDS011;12311;50.866;4.332;2022-10-31T03:24:58;8.70;;;3.60;;
24151;SDS011;12311;50.866;4.332;2022-10-31T03:27:28;8.57;;;3.40;;
24151;SDS011;12311;50.866;4.332;2022-10-31T03:29:59;6.40;;;3.03;;
24151;SDS011;12311;50.866;4.332;2022-10-31T03:32:34;9.98;;;3.47;;
24151;SDS011;12311;50.866;4.332;2022-10-31T03:35:03;13.55;;;3.85;;
24151;SDS011;12311;50.866;4.332;2022-10-31T03:37:33;8.52;;;3.35;;
24151;SDS011;12311;50.866;4.332;2022-10-31T03:40:00;8.77;;;4.13;;
24151;SDS011;12311;50.866;4.332;2022-10-31T03:42:31;13.32;;;4.20;;
24151;SDS011;12311;50.866;4.332;2022-10-31T03:45:01;8.55;;;3.33;;
24151;SDS011;12311;50.866;4.332;2022-10-31T03:49:57;9.75;;;3.00;;
24151;SDS011;12311;50.866;4.332;2022-10-31T03:55:42;8.77;;;3.75;;
24151;SDS011;12311;50.866;4.332;2022-10-31T03:58:24;8.55;;;2.97;;
24151;SDS011;12311;50.866;4.332;2022-10-31T04:00:57;5.88;;;2.85;;
24151;SDS011;12311;50.866;4.332;2022-10-31T04:03:26;6.88;;;3.38;;
24151;SDS011;12311;50.866;4.332;2022-10-31T04:05:57;10.88;;;3.50;;
24151;SDS011;12311;50.866;4.332;2022-10-31T04:08:28;9.48;;;3.50;;
24151;SDS011;12311;50.866;4.332;2022-10-31T04:10:56;7.35;;;3.17;;
24151;SDS011;12311;50.866;4.332;2022-10-31T04:13:25;7.65;;;3.35;;
24151;SDS011;12311;50.866;4.332;2022-10-31T04:15:54;7.78;;;3.35;;
24151;SDS011;12311;50.866;4.332;2022-10-31T04:18:22;13.20;;;3.70;;
24151;SDS011;12311;50.866;4.332;2022-10-31T04:20:48;12.13;;;3.63;;
24151;SDS011;12311;50.866;4.332;2022-10-31T04:23:24;8.65;;;3.65;;
24151;SDS011;12311;50.866;4.332;2022-10-31T04:25:51;7.75;;;3.10;;
24151;SDS011;12311;50.866;4.332;2022-10-31T04:28:17;5.82;;;3.10;;
24151;SDS011;12311;50.866;4.332;2022-10-31T04:30:43;6.93;;;2.75;;
24151;SDS011;12311;50.866;4.332;2022-10-31T04:33:09;8.40;;;3.67;;
24151;SDS011;12311;50.866;4.332;2022-10-31T04:35:34;10.43;;;3.42;;
24151;SDS011;12311;50.866;4.332;2022-10-31T04:38:00;7.45;;;3.95;;
24151;SDS011;12311;50.866;4.332;2022-10-31T04:40:26;7.32;;;3.17;;
24151;SDS011;12311;50.866;4.332;2022-10-31T04:42:51;8.82;;;3.28;;
24151;SDS011;12311;50.866;4.332;2022-10-31T04:45:17;8.23;;;2.97;;
24151;SDS011;12311;50.866;4.332;2022-10-31T04:47:43;9.85;;;3.88;;
24151;SDS011;12311;50.866;4.332;2022-10-31T04:50:09;9.57;;;3.83;;
24151;SDS011;12311;50.866;4.332;2022-10-31T04:52:41;9.75;;;3.88;;
24151;SDS011;12311;50.866;4.332;2022-10-31T04:55:08;14.60;;;3.08;;
24151;SDS011;12311;50.866;4.332;2022-10-31T04:57:41;9.00;;;3.85;;
24151;SDS011;12311;50.866;4.332;2022-10-31T05:00:08;9.35;;;3.30;;
24151;SDS011;12311;50.866;4.332;2022-10-31T05:02:41;14.32;;;3.35;;
24151;SDS011;12311;50.866;4.332;2022-10-31T05:05:08;7.72;;;3.15;;
24151;SDS011;12311;50.866;4.332;2022-10-31T05:07:37;9.98;;;2.78;;
24151;SDS011;12311;50.866;4.332;2022-10-31T05:10:04;11.10;;;3.35;;
24151;SDS011;12311;50.866;4.332;2022-10-31T05:12:30;13.00;;;4.13;;
24151;SDS011;12311;50.866;4.332;2022-10-31T05:14:56;8.10;;;2.88;;
24151;SDS011;12311;50.866;4.332;2022-10-31T05:17:21;8.45;;;3.08;;
24151;SDS011;12311;50.866;4.332;2022-10-31T05:19:47;9.95;;;2.50;;
24151;SDS011;12311;50.866;4.332;2022-10-31T05:22:12;8.75;;;3.00;;
24151;SDS011;12311;50.866;4.332;2022-10-31T05:24:38;10.65;;;2.90;;
24151;SDS011;12311;50.866;4.332;2022-10-31T05:27:04;12.70;;;3.42;;
24151;SDS011;12311;50.866;4.332;2022-10-31T05:29:29;7.50;;;2.85;;
24151;SDS011;12311;50.866;4.332;2022-10-31T05:31:58;7.97;;;2.97;;
24151;SDS011;12311;50.866;4.332;2022-10-31T05:34:24;8.32;;;3.70;;
24151;SDS011;12311;50.866;4.332;2022-10-31T05:36:49;5.85;;;2.70;;
24151;SDS011;12311;50.866;4.332;2022-10-31T05:39:15;8.23;;;3.10;;
24151;SDS011;12311;50.866;4.332;2022-10-31T05:41:41;4.85;;;2.67;;
24151;SDS011;12311;50.866;4.332;2022-10-31T05:44:06;12.00;;;3.78;;
24151;SDS011;12311;50.866;4.332;2022-10-31T05:46:32;6.75;;;3.13;;
24151;SDS011;12311;50.866;4.332;2022-10-31T05:48:58;6.55;;;2.95;;
24151;SDS011;12311;50.866;4.332;2022-10-31T05:51:23;14.60;;;4.13;;
24151;SDS011;12311;50.866;4.332;2022-10-31T05:53:49;8.75;;;3.20;;
24151;SDS011;12311;50.866;4.332;2022-10-31T05:56:15;8.07;;;3.15;;
24151;SDS011;12311;50.866;4.332;2022-10-31T05:58:41;13.10;;;3.72;;
24151;SDS011;12311;50.866;4.332;2022-10-31T06:01:06;11.88;;;3.88;;
24151;SDS011;12311;50.866;4.332;2022-10-31T06:03:32;8.95;;;3.53;;
24151;SDS011;12311;50.866;4.332;2022-10-31T06:05:57;13.35;;;3.97;;
24151;SDS011;12311;50.866;4.332;2022-10-31T06:08:23;11.85;;;3.63;;
24151;SDS011;12311;50.866;4.332;2022-10-31T06:10:49;7.70;;;3.03;;
24151;SDS011;12311;50.866;4.332;2022-10-31T06:13:14;10.48;;;4.32;;
24151;SDS011;12311;50.866;4.332;2022-10-31T06:15:43;9.00;;;3.90;;
24151;SDS011;12311;50.866;4.332;2022-10-31T06:18:09;16.45;;;4.07;;
24151;SDS011;12311;50.866;4.332;2022-10-31T06:20:34;8.00;;;4.03;;
24151;SDS011;12311;50.866;4.332;2022-10-31T06:23:00;8.25;;;3.28;;
24151;SDS011;12311;50.866;4.332;2022-10-31T06:25:27;10.20;;;4.05;;
24151;SDS011;12311;50.866;4.332;2022-10-31T06:27:53;8.73;;;3.65;;
24151;SDS011;12311;50.866;4.332;2022-10-31T06:30:19;9.63;;;4.00;;
24151;SDS011;12311;50.866;4.332;2022-10-31T06:32:44;12.25;;;4.25;;
24151;SDS011;12311;50.866;4.332;2022-10-31T06:35:10;11.30;;;4.40;;
24151;SDS011;12311;50.866;4.332;2022-10-31T06:37:36;16.35;;;3.75;;
24151;SDS011;12311;50.866;4.332;2022-10-31T06:40:02;10.57;;;3.38;;
24151;SDS011;12311;50.866;4.332;2022-10-31T06:42:28;9.85;;;3.33;;
24151;SDS011;12311;50.866;4.332;2022-10-31T06:44:53;12.48;;;3.63;;
24151;SDS011;12311;50.866;4.332;2022-10-31T06:47:19;14.70;;;3.55;;
24151;SDS011;12311;50.866;4.332;2022-10-31T06:49:45;8.23;;;4.32;;
24151;SDS011;12311;50.866;4.332;2022-10-31T06:52:10;7.20;;;3.38;;
24151;SDS011;12311;50.866;4.332;2022-10-31T06:54:36;9.95;;;3.60;;
24151;SDS011;12311;50.866;4.332;2022-10-31T06:57:01;10.73;;;3.85;;
24151;SDS011;12311;50.866;4.332;2022-10-31T06:59:28;13.00;;;4.20;;
24151;SDS011;12311;50.866;4.332;2022-10-31T07:01:54;10.52;;;3.97;;
24151;SDS011;12311;50.866;4.332;2022-10-31T07:04:19;8.85;;;3.35;;
24151;SDS011;12311;50.866;4.332;2022-10-31T07:06:45;9.27;;;3.97;;
24151;SDS011;12311;50.866;4.332;2022-10-31T07:09:11;7.35;;;3.47;;
24151;SDS011;12311;50.866;4.332;2022-10-31T07:11:36;5.82;;;3.22;;
24151;SDS011;12311;50.866;4.332;2022-10-31T07:14:02;10.40;;;3.53;;
24151;SDS011;12311;50.866;4.332;2022-10-31T07:16:28;7.63;;;3.80;;
24151;SDS011;12311;50.866;4.332;2022-10-31T07:18:53;12.05;;;3.97;;
24151;SDS011;12311;50.866;4.332;2022-10-31T07:21:19;11.02;;;4.55;;
24151;SDS011;12311;50.866;4.332;2022-10-31T07:23:46;10.40;;;3.80;;
24151;SDS011;12311;50.866;4.332;2022-10-31T07:26:13;7.05;;;3.50;;
24151;SDS011;12311;50.866;4.332;2022-10-31T07:28:39;17.13;;;4.25;;
24151;SDS011;12311;50.866;4.332;2022-10-31T07:31:04;8.27;;;3.53;;
24151;SDS011;12311;50.866;4.332;2022-10-31T07:33:30;14.27;;;4.05;;
24151;SDS011;12311;50.866;4.332;2022-10-31T07:35:56;15.07;;;4.30;;
24151;SDS011;12311;50.866;4.332;2022-10-31T07:38:22;12.02;;;4.28;;
24151;SDS011;12311;50.866;4.332;2022-10-31T07:40:51;7.72;;;3.40;;
24151;SDS011;12311;50.866;4.332;2022-10-31T07:43:20;13.00;;;4.32;;
24151;SDS011;12311;50.866;4.332;2022-10-31T07:45:52;7.05;;;3.42;;
24151;SDS011;12311;50.866;4.332;2022-10-31T07:48:18;12.80;;;3.40;;
24151;SDS011;12311;50.866;4.332;2022-10-31T07:50:44;10.40;;;4.57;;
24151;SDS011;12311;50.866;4.332;2022-10-31T07:53:11;8.90;;;3.88;;
24151;SDS011;12311;50.866;4.332;2022-10-31T07:55:38;10.63;;;4.32;;
24151;SDS011;12311;50.866;4.332;2022-10-31T07:58:14;8.38;;;3.78;;
24151;SDS011;12311;50.866;4.332;2022-10-31T08:00:41;8.07;;;2.90;;
24151;SDS011;12311;50.866;4.332;2022-10-31T08:03:09;6.72;;;3.33;;
24151;SDS011;12311;50.866;4.332;2022-10-31T08:05:36;10.35;;;3.90;;
24151;SDS011;12311;50.866;4.332;2022-10-31T08:08:03;10.65;;;3.80;;
24151;SDS011;12311;50.866;4.332;2022-10-31T08:10:30;13.52;;;3.30;;
24151;SDS011;12311;50.866;4.332;2022-10-31T08:13:06;11.88;;;3.70;;
24151;SDS011;12311;50.866;4.332;2022-10-31T08:15:34;7.20;;;3.25;;
24151;SDS011;12311;50.866;4.332;2022-10-31T08:18:03;10.85;;;4.32;;
24151;SDS011;12311;50.866;4.332;2022-10-31T08:20:29;11.52;;;3.15;;
24151;SDS011;12311;50.866;4.332;2022-10-31T08:22:59;7.40;;;2.60;;
24151;SDS011;12311;50.866;4.332;2022-10-31T08:25:26;11.73;;;3.90;;
24151;SDS011;12311;50.866;4.332;2022-10-31T08:27:54;7.65;;;3.00;;
24151;SDS011;12311;50.866;4.332;2022-10-31T08:30:20;8.38;;;3.63;;
24151;SDS011;12311;50.866;4.332;2022-10-31T08:32:56;8.38;;;2.58;;
24151;SDS011;12311;50.866;4.332;2022-10-31T08:35:26;6.88;;;2.95;;
24151;SDS011;12311;50.866;4.332;2022-10-31T08:37:52;12.35;;;3.75;;
24151;SDS011;12311;50.866;4.332;2022-10-31T08:40:19;9.45;;;3.47;;
24151;SDS011;12311;50.866;4.332;2022-10-31T08:42:45;6.63;;;3.00;;
24151;SDS011;12311;50.866;4.332;2022-10-31T08:45:10;8.70;;;3.25;;
24151;SDS011;12311;50.866;4.332;2022-10-31T08:47:36;8.95;;;3.25;;
24151;SDS011;12311;50.866;4.332;2022-10-31T08:50:02;9.32;;;3.90;;
24151;SDS011;12311;50.866;4.332;2022-10-31T08:52:28;10.52;;;3.60;;
24151;SDS011;12311;50.866;4.332;2022-10-31T08:54:53;7.97;;;3.28;;
24151;SDS011;12311;50.866;4.332;2022-10-31T08:57:19;7.50;;;3.70;;
24151;SDS011;12311;50.866;4.332;2022-10-31T08:59:45;14.77;;;3.92;;
24151;SDS011;12311;50.866;4.332;2022-10-31T09:02:10;6.05;;;2.78;;
24151;SDS011;12311;50.866;4.332;2022-10-31T09:04:36;7.43;;;3.28;;
24151;SDS011;12311;50.866;4.332;2022-10-31T09:07:02;7.38;;;3.42;;
24151;SDS011;12311;50.866;4.332;2022-10-31T09:09:27;7.70;;;3.33;;
24151;SDS011;12311;50.866;4.332;2022-10-31T09:11:53;10.73;;;3.10;;
24151;SDS011;12311;50.866;4.332;2022-10-31T09:14:19;7.95;;;3.13;;
24151;SDS011;12311;50.866;4.332;2022-10-31T09:16:44;11.30;;;3.97;;
24151;SDS011;12311;50.866;4.332;2022-10-31T09:19:10;9.93;;;3.38;;
24151;SDS011;12311;50.866;4.332;2022-10-31T09:21:35;6.57;;;2.65;;
24151;SDS011;12311;50.866;4.332;2022-10-31T09:24:01;8.95;;;3.38;;
24151;SDS011;12311;50.866;4.332;2022-10-31T09:26:27;11.05;;;3.88;;
24151;SDS011;12311;50.866;4.332;2022-10-31T09:28:52;8.98;;;3.05;;
24151;SDS011;12311;50.866;4.332;2022-10-31T09:31:18;6.07;;;3.17;;
24151;SDS011;12311;50.866;4.332;2022-10-31T09:33:44;8.00;;;2.50;;
24151;SDS011;12311;50.866;4.332;2022-10-31T09:36:09;7.15;;;2.80;;
24151;SDS011;12311;50.866;4.332;2022-10-31T09:38:35;5.13;;;2.03;;
24151;SDS011;12311;50.866;4.332;2022-10-31T09:46:13;6.43;;;2.20;;
24151;SDS011;12311;50.866;4.332;2022-10-31T09:49:02;4.65;;;1.80;;
24151;SDS011;12311;50.866;4.332;2022-10-31T09:51:43;6.20;;;2.45;;
24151;SDS011;12311;50.866;4.332;2022-10-31T09:54:29;7.65;;;1.83;;
24151;SDS011;12311;50.866;4.332;2022-10-31T09:57:19;4.25;;;1.90;;
24151;SDS011;12311;50.866;4.332;2022-10-31T09:59:53;5.60;;;2.38;;
24151;SDS011;12311;50.866;4.332;2022-10-31T10:05:19;4.85;;;1.90;;
24151;SDS011;12311;50.866;4.332;2022-10-31T10:07:53;4.82;;;2.50;;
24151;SDS011;12311;50.866;4.332;2022-10-31T10:18:44;9.27;;;2.45;;
24151;SDS011;12311;50.866;4.332;2022-10-31T10:26:53;4.93;;;2.10;;
24151;SDS011;12311;50.866;4.332;2022-10-31T10:29:28;5.43;;;2.53;;
24151;SDS011;12311;50.866;4.332;2022-10-31T10:32:02;5.05;;;2.10;;
24151;SDS011;12311;50.866;4.332;2022-10-31T10:34:36;4.63;;;2.08;;
24151;SDS011;12311;50.866;4.332;2022-10-31T10:40:00;7.00;;;2.53;;
24151;SDS011;12311;50.866;4.332;2022-10-31T10:43:04;6.80;;;2.85;;
24151;SDS011;12311;50.866;4.332;2022-10-31T10:59:36;7.53;;;3.00;;
24151;SDS011;12311;50.866;4.332;2022-10-31T11:02:03;8.52;;;3.38;;
24151;SDS011;12311;50.866;4.332;2022-10-31T11:04:39;4.90;;;2.47;;
24151;SDS011;12311;50.866;4.332;2022-10-31T11:07:07;5.78;;;2.60;;
24151;SDS011;12311;50.866;4.332;2022-10-31T11:09:34;6.10;;;2.83;;
24151;SDS011;12311;50.866;4.332;2022-10-31T11:12:08;9.00;;;3.40;;
24151;SDS011;12311;50.866;4.332;2022-10-31T11:14:42;8.32;;;2.95;;
24151;SDS011;12311;50.866;4.332;2022-10-31T11:17:33;14.13;;;2.88;;
24151;SDS011;12311;50.866;4.332;2022-10-31T11:22:44;11.38;;;3.47;;
24151;SDS011;12311;50.866;4.332;2022-10-31T11:28:05;12.10;;;3.70;;
24151;SDS011;12311;50.866;4.332;2022-10-31T11:30:54;6.75;;;3.10;;
24151;SDS011;12311;50.866;4.332;2022-10-31T11:33:30;6.40;;;3.03;;
24151;SDS011;12311;50.866;4.332;2022-10-31T11:36:02;7.00;;;2.58;;
24151;SDS011;12311;50.866;4.332;2022-10-31T11:38:45;9.15;;;3.28;;
24151;SDS011;12311;50.866;4.332;2022-10-31T11:44:02;6.65;;;2.53;;
24151;SDS011;12311;50.866;4.332;2022-10-31T11:46:37;8.75;;;2.33;;
24151;SDS011;12311;50.866;4.332;2022-10-31T11:49:12;8.63;;;3.22;;
24151;SDS011;12311;50.866;4.332;2022-10-31T11:51:41;9.32;;;2.92;;
24151;SDS011;12311;50.866;4.332;2022-10-31T11:54:14;7.03;;;2.97;;
24151;SDS011;12311;50.866;4.332;2022-10-31T11:56:54;7.90;;;2.65;;
24151;SDS011;12311;50.866;4.332;2022-10-31T11:59:22;5.72;;;2.08;;
24151;SDS011;12311;50.866;4.332;2022-10-31T12:01:51;6.95;;;3.13;;
24151;SDS011;12311;50.866;4.332;2022-10-31T12:04:18;8.07;;;3.00;;
24151;SDS011;12311;50.866;4.332;2022-10-31T12:06:57;12.45;;;3.30;;
24151;SDS011;12311;50.866;4.332;2022-10-31T12:09:25;6.80;;;3.33;;
24151;SDS011;12311;50.866;4.332;2022-10-31T12:45:55;7.45;;;2.65;;
24151;SDS011;12311;50.866;4.332;2022-10-31T12:51:36;6.55;;;2.35;;
24151;SDS011;12311;50.866;4.332;2022-10-31T12:59:50;8.95;;;2.75;;
24151;SDS011;12311;50.866;4.332;2022-10-31T13:02:33;5.18;;;2.75;;
24151;SDS011;12311;50.866;4.332;2022-10-31T13:07:43;10.25;;;2.38;;
24151;SDS011;12311;50.866;4.332;2022-10-31T13:10:26;9.07;;;2.60;;
24151;SDS011;12311;50.866;4.332;2022-10-31T13:13:19;5.97;;;2.13;;
24151;SDS011;12311;50.866;4.332;2022-10-31T13:15:52;5.95;;;2.22;;
24151;SDS011;12311;50.866;4.332;2022-10-31T13:18:32;5.32;;;2.17;;
24151;SDS011;12311;50.866;4.332;2022-10-31T13:21:03;5.35;;;2.10;;
24151;SDS011;12311;50.866;4.332;2022-10-31T13:23:37;6.30;;;2.20;;
24151;SDS011;12311;50.866;4.332;2022-10-31T13:26:16;6.13;;;2.08;;
24151;SDS011;12311;50.866;4.332;2022-10-31T13:28:57;6.15;;;2.28;;
24151;SDS011;12311;50.866;4.332;2022-10-31T13:31:25;6.43;;;2.03;;
24151;SDS011;12311;50.866;4.332;2022-10-31T13:34:02;6.13;;;2.80;;
24151;SDS011;12311;50.866;4.332;2022-10-31T13:36:41;5.47;;;2.40;;
24151;SDS011;12311;50.866;4.332;2022-10-31T13:39:29;4.93;;;2.05;;
24151;SDS011;12311;50.866;4.332;2022-10-31T13:44:51;6.32;;;2.63;;
24151;SDS011;12311;50.866;4.332;2022-10-31T13:47:34;6.70;;;2.60;;
24151;SDS011;12311;50.866;4.332;2022-10-31T13:50:20;8.07;;;2.28;;
24151;SDS011;12311;50.866;4.332;2022-10-31T13:52:47;4.70;;;2.33;;
24151;SDS011;12311;50.866;4.332;2022-10-31T13:58:04;7.13;;;2.33;;
24151;SDS011;12311;50.866;4.332;2022-10-31T14:06:34;6.07;;;2.45;;
24151;SDS011;12311;50.866;4.332;2022-10-31T14:09:23;5.80;;;2.42;;
24151;SDS011;12311;50.866;4.332;2022-10-31T14:12:02;8.63;;;3.05;;
24151;SDS011;12311;50.866;4.332;2022-10-31T14:14:35;6.88;;;2.03;;
24151;SDS011;12311;50.866;4.332;2022-10-31T14:17:13;4.82;;;2.35;;
24151;SDS011;12311;50.866;4.332;2022-10-31T14:19:56;7.32;;;2.75;;
24151;SDS011;12311;50.866;4.332;2022-10-31T14:22:28;8.32;;;2.40;;
24151;SDS011;12311;50.866;4.332;2022-10-31T14:24:55;3.35;;;2.42;;
24151;SDS011;12311;50.866;4.332;2022-10-31T14:29:49;7.57;;;2.10;;
24151;SDS011;12311;50.866;4.332;2022-10-31T14:32:20;7.00;;;3.17;;
24151;SDS011;12311;50.866;4.332;2022-10-31T14:34:57;10.05;;;1.90;;
24151;SDS011;12311;50.866;4.332;2022-10-31T14:37:40;4.00;;;2.10;;
24151;SDS011;12311;50.866;4.332;2022-10-31T14:40:49;5.35;;;2.03;;
24151;SDS011;12311;50.866;4.332;2022-10-31T14:49:22;5.85;;;1.88;;
24151;SDS011;12311;50.866;4.332;2022-10-31T14:52:05;7.38;;;2.53;;
24151;SDS011;12311;50.866;4.332;2022-10-31T14:54:33;6.97;;;1.67;;
24151;SDS011;12311;50.866;4.332;2022-10-31T14:57:08;2.80;;;1.83;;
24151;SDS011;12311;50.866;4.332;2022-10-31T14:59:44;5.30;;;1.70;;
24151;SDS011;12311;50.866;4.332;2022-10-31T15:02:26;4.40;;;1.75;;
24151;SDS011;12311;50.866;4.332;2022-10-31T15:05:08;4.35;;;1.40;;
24151;SDS011;12311;50.866;4.332;2022-10-31T15:07:36;6.53;;;2.67;;
24151;SDS011;12311;50.866;4.332;2022-10-31T15:12:50;7.65;;;2.08;;
24151;SDS011;12311;50.866;4.332;2022-10-31T15:15:18;4.53;;;1.95;;
24151;SDS011;12311;50.866;4.332;2022-10-31T15:17:52;8.60;;;2.08;;
24151;SDS011;12311;50.866;4.332;2022-10-31T15:20:24;4.10;;;1.80;;
24151;SDS011;12311;50.866;4.332;2022-10-31T15:22:52;5.10;;;2.05;;
24151;SDS011;12311;50.866;4.332;2022-10-31T15:25:24;9.35;;;2.20;;
24151;SDS011;12311;50.866;4.332;2022-10-31T15:27:59;6.60;;;1.83;;
24151;SDS011;12311;50.866;4.332;2022-10-31T15:30:25;2.97;;;1.75;;
24151;SDS011;12311;50.866;4.332;2022-10-31T15:32:52;11.98;;;2.70;;
24151;SDS011;12311;50.866;4.332;2022-10-31T15:35:20;5.93;;;2.30;;
24151;SDS011;12311;50.866;4.332;2022-10-31T15:37:58;4.32;;;2.63;;
24151;SDS011;12311;50.866;4.332;2022-10-31T15:40:26;16.10;;;2.10;;
24151;SDS011;12311;50.866;4.332;2022-10-31T15:42:56;8.10;;;2.90;;
24151;SDS011;12311;50.866;4.332;2022-10-31T15:45:27;4.90;;;2.00;;
24151;SDS011;12311;50.866;4.332;2022-10-31T15:47:56;7.13;;;3.03;;
24151;SDS011;12311;50.866;4.332;2022-10-31T15:52:51;11.32;;;2.90;;
24151;SDS011;12311;50.866;4.332;2022-10-31T15:55:18;6.43;;;2.80;;
24151;SDS011;12311;50.866;4.332;2022-10-31T15:57:50;7.03;;;2.95;;
24151;SDS011;12311;50.866;4.332;2022-10-31T16:00:25;13.65;;;4.22;;
24151;SDS011;12311;50.866;4.332;2022-10-31T16:03:02;7.82;;;3.08;;
24151;SDS011;12311;50.866;4.332;2022-10-31T16:05:33;6.72;;;2.95;;
24151;SDS011;12311;50.866;4.332;2022-10-31T16:08:00;7.53;;;2.80;;
24151;SDS011;12311;50.866;4.332;2022-10-31T16:10:27;8.18;;;3.25;;
24151;SDS011;12311;50.866;4.332;2022-10-31T16:13:00;8.27;;;2.45;;
24151;SDS011;12311;50.866;4.332;2022-10-31T16:15:27;6.32;;;2.08;;
24151;SDS011;12311;50.866;4.332;2022-10-31T16:17:53;4.50;;;2.28;;
24151;SDS011;12311;50.866;4.332;2022-10-31T16:20:22;6.00;;;2.80;;
24151;SDS011;12311;50.866;4.332;2022-10-31T16:22:57;6.63;;;3.38;;
24151;SDS011;12311;50.866;4.332;2022-10-31T16:25:28;12.55;;;3.50;;
24151;SDS011;12311;50.866;4.332;2022-10-31T16:28:01;10.30;;;2.63;;
24151;SDS011;12311;50.866;4.332;2022-10-31T16:30:38;5.38;;;2.25;;
24151;SDS011;12311;50.866;4.332;2022-10-31T16:33:20;11.40;;;3.67;;
24151;SDS011;12311;50.866;4.332;2022-10-31T16:36:01;9.85;;;2.78;;
24151;SDS011;12311;50.866;4.332;2022-10-31T16:38:45;8.88;;;3.90;;
24151;SDS011;12311;50.866;4.332;2022-10-31T16:41:11;11.27;;;4.15;;
24151;SDS011;12311;50.866;4.332;2022-10-31T16:43:36;7.05;;;2.95;;
24151;SDS011;12311;50.866;4.332;2022-10-31T16:46:02;9.40;;;4.22;;
24151;SDS011;12311;50.866;4.332;2022-10-31T16:48:28;9.60;;;4.00;;
24151;SDS011;12311;50.866;4.332;2022-10-31T16:50:54;22.00;;;4.30;;
24151;SDS011;12311;50.866;4.332;2022-10-31T16:53:20;12.50;;;3.60;;
24151;SDS011;12311;50.866;4.332;2022-10-31T16:55:48;8.60;;;3.80;;
24151;SDS011;12311;50.866;4.332;2022-10-31T16:58:29;10.85;;;3.42;;
24151;SDS011;12311;50.866;4.332;2022-10-31T17:01:03;7.25;;;4.07;;
24151;SDS011;12311;50.866;4.332;2022-10-31T17:03:31;15.02;;;6.53;;
24151;SDS011;12311;50.866;4.332;2022-10-31T17:05:57;17.83;;;4.20;;
24151;SDS011;12311;50.866;4.332;2022-10-31T17:08:23;11.75;;;3.42;;
24151;SDS011;12311;50.866;4.332;2022-10-31T17:10:58;14.68;;;5.32;;
24151;SDS011;12311;50.866;4.332;2022-10-31T17:13:28;12.38;;;3.90;;
24151;SDS011;12311;50.866;4.332;2022-10-31T17:15:59;9.18;;;3.47;;
24151;SDS011;12311;50.866;4.332;2022-10-31T17:18:27;12.07;;;4.80;;
24151;SDS011;12311;50.866;4.332;2022-10-31T17:20:56;13.63;;;3.22;;